sensor_id;sensor_type;location;lat;lon;timestamp;pressure;altitude;pressure_sealevel;temperature;humidity
47330;BME280;33060;50.178;7.570;2022-09-09T00:04:33;96505.22;;;14.56;92.04
47330;BME280;33060;50.178;7.570;2022-09-09T00:10:13;96496.72;;;14.52;92.00
47330;BME280;33060;50.178;7.570;2022-09-09T00:18:26;96489.19;;;14.48;92.01
47330;BME280;33060;50.178;7.570;2022-09-09T00:21:04;96483.56;;;14.51;91.71
47330;BME280;33060;50.178;7.570;2022-09-09T00:23:35;96493.22;;;14.52;91.81
47330;BME280;33060;50.178;7.570;2022-09-09T00:31:30;96481.63;;;14.53;91.74
47330;BME280;33060;50.178;7.570;2022-09-09T00:34:19;96486.63;;;14.56;91.20
47330;BME280;33060;50.178;7.570;2022-09-09T00:36:49;96475.88;;;14.57;90.97
47330;BME280;33060;50.178;7.570;2022-09-09T00:39:34;96483.97;;;14.56;91.83
47330;BME280;33060;50.178;7.570;2022-09-09T00:45:07;96473.50;;;14.54;92.43
47330;BME280;33060;50.178;7.570;2022-09-09T00:47:46;96475.44;;;14.62;92.14
47330;BME280;33060;50.178;7.570;2022-09-09T00:52:55;96476.16;;;14.54;92.69
47330;BME280;33060;50.178;7.570;2022-09-09T00:56:18;96481.31;;;14.56;92.78
47330;BME280;33060;50.178;7.570;2022-09-09T00:58:23;96474.34;;;14.55;93.39
47330;BME280;33060;50.178;7.570;2022-09-09T01:00:56;96469.03;;;14.55;93.65
47330;BME280;33060;50.178;7.570;2022-09-09T01:06:23;96457.00;;;14.60;93.12
47330;BME280;33060;50.178;7.570;2022-09-09T01:16:47;96446.88;;;14.36;95.09
47330;BME280;33060;50.178;7.570;2022-09-09T01:19:23;96451.78;;;14.31;95.60
47330;BME280;33060;50.178;7.570;2022-09-09T01:22:05;96456.69;;;14.26;95.95
47330;BME280;33060;50.178;7.570;2022-09-09T01:25:01;96469.25;;;14.24;96.28
47330;BME280;33060;50.178;7.570;2022-09-09T01:27:57;96467.31;;;14.26;96.47
47330;BME280;33060;50.178;7.570;2022-09-09T01:30:26;96468.13;;;14.27;96.70
47330;BME280;33060;50.178;7.570;2022-09-09T01:32:57;96473.28;;;14.28;96.23
47330;BME280;33060;50.178;7.570;2022-09-09T01:37:59;96485.69;;;14.37;96.23
47330;BME280;33060;50.178;7.570;2022-09-09T01:40:26;96485.44;;;14.31;96.54
47330;BME280;33060;50.178;7.570;2022-09-09T01:42:54;96484.91;;;14.27;96.73
47330;BME280;33060;50.178;7.570;2022-09-09T01:45:22;96484.75;;;14.29;96.82
47330;BME280;33060;50.178;7.570;2022-09-09T01:47:52;96482.25;;;14.27;96.98
47330;BME280;33060;50.178;7.570;2022-09-09T01:50:27;96484.31;;;14.24;97.05
47330;BME280;33060;50.178;7.570;2022-09-09T01:52:59;96484.75;;;14.29;96.95
47330;BME280;33060;50.178;7.570;2022-09-09T01:55:33;96486.25;;;14.31;96.76
47330;BME280;33060;50.178;7.570;2022-09-09T02:00:54;96478.31;;;14.31;96.50
47330;BME280;33060;50.178;7.570;2022-09-09T02:03:28;96483.47;;;14.33;96.27
47330;BME280;33060;50.178;7.570;2022-09-09T02:06:36;96477.19;;;14.24;96.28
47330;BME280;33060;50.178;7.570;2022-09-09T02:09:19;96463.25;;;14.22;96.52
47330;BME280;33060;50.178;7.570;2022-09-09T02:11:55;96471.66;;;14.18;96.63
47330;BME280;33060;50.178;7.570;2022-09-09T02:14:40;96463.56;;;14.19;96.43
47330;BME280;33060;50.178;7.570;2022-09-09T02:17:10;96469.00;;;14.18;96.44
47330;BME280;33060;50.178;7.570;2022-09-09T02:19:59;96463.72;;;14.18;96.43
47330;BME280;33060;50.178;7.570;2022-09-09T02:22:45;96456.09;;;14.32;95.81
47330;BME280;33060;50.178;7.570;2022-09-09T02:25:18;96454.28;;;14.33;95.52
47330;BME280;33060;50.178;7.570;2022-09-09T02:27:49;96456.50;;;14.37;94.92
47330;BME280;33060;50.178;7.570;2022-09-09T02:30:18;96458.03;;;14.40;95.08
47330;BME280;33060;50.178;7.570;2022-09-09T02:32:52;96462.91;;;14.45;94.62
47330;BME280;33060;50.178;7.570;2022-09-09T02:35:34;96459.31;;;14.46;94.50
47330;BME280;33060;50.178;7.570;2022-09-09T02:38:08;96454.13;;;14.44;94.44
47330;BME280;33060;50.178;7.570;2022-09-09T02:40:38;96458.19;;;14.38;94.61
47330;BME280;33060;50.178;7.570;2022-09-09T02:43:05;96449.84;;;14.33;94.31
47330;BME280;33060;50.178;7.570;2022-09-09T02:45:44;96453.31;;;14.34;94.63
47330;BME280;33060;50.178;7.570;2022-09-09T02:48:21;96451.53;;;14.25;94.58
47330;BME280;33060;50.178;7.570;2022-09-09T02:51:08;96448.63;;;14.18;94.91
47330;BME280;33060;50.178;7.570;2022-09-09T02:53:53;96443.88;;;14.12;95.41
47330;BME280;33060;50.178;7.570;2022-09-09T02:56:25;96449.47;;;14.19;95.04
47330;BME280;33060;50.178;7.570;2022-09-09T02:58:55;96446.25;;;14.15;94.84
47330;BME280;33060;50.178;7.570;2022-09-09T03:01:23;96452.69;;;14.12;94.90
47330;BME280;33060;50.178;7.570;2022-09-09T03:03:50;96452.81;;;14.11;94.95
47330;BME280;33060;50.178;7.570;2022-09-09T03:06:17;96451.69;;;14.13;94.96
47330;BME280;33060;50.178;7.570;2022-09-09T03:08:49;96447.09;;;14.06;94.86
47330;BME280;33060;50.178;7.570;2022-09-09T03:11:21;96443.50;;;13.97;95.90
47330;BME280;33060;50.178;7.570;2022-09-09T03:13:48;96446.72;;;14.01;95.33
47330;BME280;33060;50.178;7.570;2022-09-09T03:16:16;96462.19;;;14.05;95.25
47330;BME280;33060;50.178;7.570;2022-09-09T03:18:46;96463.63;;;14.00;94.96
47330;BME280;33060;50.178;7.570;2022-09-09T03:21:12;96458.72;;;13.95;95.38
47330;BME280;33060;50.178;7.570;2022-09-09T03:23:41;96466.53;;;13.97;95.63
47330;BME280;33060;50.178;7.570;2022-09-09T03:26:08;96458.88;;;13.94;95.88
47330;BME280;33060;50.178;7.570;2022-09-09T03:28:41;96463.34;;;13.93;95.74
47330;BME280;33060;50.178;7.570;2022-09-09T03:31:10;96472.41;;;13.91;95.94
47330;BME280;33060;50.178;7.570;2022-09-09T03:33:40;96481.31;;;13.90;96.02
47330;BME280;33060;50.178;7.570;2022-09-09T03:36:10;96486.91;;;13.96;95.47
47330;BME280;33060;50.178;7.570;2022-09-09T03:38:37;96484.13;;;13.88;95.51
47330;BME280;33060;50.178;7.570;2022-09-09T03:41:05;96478.00;;;13.88;95.28
47330;BME280;33060;50.178;7.570;2022-09-09T03:43:34;96474.66;;;13.85;95.49
47330;BME280;33060;50.178;7.570;2022-09-09T03:46:01;96476.31;;;13.86;94.96
47330;BME280;33060;50.178;7.570;2022-09-09T03:48:28;96476.75;;;13.82;95.37
47330;BME280;33060;50.178;7.570;2022-09-09T03:50:56;96475.94;;;13.81;95.33
47330;BME280;33060;50.178;7.570;2022-09-09T03:53:24;96460.84;;;13.82;95.04
47330;BME280;33060;50.178;7.570;2022-09-09T03:55:53;96471.47;;;13.82;95.34
47330;BME280;33060;50.178;7.570;2022-09-09T03:58:27;96473.38;;;13.80;94.94
47330;BME280;33060;50.178;7.570;2022-09-09T04:01:05;96472.16;;;13.74;95.41
47330;BME280;33060;50.178;7.570;2022-09-09T04:03:32;96468.25;;;13.69;95.87
47330;BME280;33060;50.178;7.570;2022-09-09T04:06:00;96466.03;;;13.64;96.17
47330;BME280;33060;50.178;7.570;2022-09-09T04:08:29;96477.88;;;13.60;97.03
47330;BME280;33060;50.178;7.570;2022-09-09T04:11:01;96469.94;;;13.60;97.15
47330;BME280;33060;50.178;7.570;2022-09-09T04:13:33;96474.41;;;13.60;97.43
47330;BME280;33060;50.178;7.570;2022-09-09T04:16:02;96476.06;;;13.61;97.58
47330;BME280;33060;50.178;7.570;2022-09-09T04:18:30;96483.72;;;13.64;97.93
47330;BME280;33060;50.178;7.570;2022-09-09T04:20:58;96472.59;;;13.60;98.23
47330;BME280;33060;50.178;7.570;2022-09-09T04:23:28;96472.16;;;13.55;98.60
47330;BME280;33060;50.178;7.570;2022-09-09T04:25:58;96481.78;;;13.46;98.71
47330;BME280;33060;50.178;7.570;2022-09-09T04:28:28;96477.19;;;13.39;99.20
47330;BME280;33060;50.178;7.570;2022-09-09T04:30:55;96479.56;;;13.32;100.00
47330;BME280;33060;50.178;7.570;2022-09-09T04:33:24;96484.28;;;13.28;100.00
47330;BME280;33060;50.178;7.570;2022-09-09T04:35:54;96480.09;;;13.36;100.00
47330;BME280;33060;50.178;7.570;2022-09-09T04:38:23;96487.22;;;13.45;100.00
47330;BME280;33060;50.178;7.570;2022-09-09T04:40:51;96488.78;;;13.57;100.00
47330;BME280;33060;50.178;7.570;2022-09-09T04:43:18;96485.13;;;13.68;99.82
47330;BME280;33060;50.178;7.570;2022-09-09T04:45:47;96493.50;;;13.73;99.87
47330;BME280;33060;50.178;7.570;2022-09-09T04:48:14;96491.41;;;13.76;99.78
47330;BME280;33060;50.178;7.570;2022-09-09T04:50:42;96492.25;;;13.77;99.16
47330;BME280;33060;50.178;7.570;2022-09-09T04:53:10;96489.88;;;13.74;99.55
47330;BME280;33060;50.178;7.570;2022-09-09T04:55:38;96501.31;;;13.74;99.55
47330;BME280;33060;50.178;7.570;2022-09-09T04:58:06;96499.34;;;13.76;99.56
47330;BME280;33060;50.178;7.570;2022-09-09T05:00:34;96496.16;;;13.82;99.39
47330;BME280;33060;50.178;7.570;2022-09-09T05:03:06;96485.09;;;13.87;98.63
47330;BME280;33060;50.178;7.570;2022-09-09T05:05:35;96493.34;;;13.84;98.83
47330;BME280;33060;50.178;7.570;2022-09-09T05:08:04;96494.59;;;13.80;98.99
47330;BME280;33060;50.178;7.570;2022-09-09T05:10:32;96497.97;;;13.82;99.67
47330;BME280;33060;50.178;7.570;2022-09-09T05:12:59;96497.53;;;13.86;99.14
47330;BME280;33060;50.178;7.570;2022-09-09T05:15:28;96504.09;;;13.92;99.20
47330;BME280;33060;50.178;7.570;2022-09-09T05:17:59;96500.31;;;13.95;99.53
47330;BME280;33060;50.178;7.570;2022-09-09T05:20:29;96497.38;;;13.98;99.58
47330;BME280;33060;50.178;7.570;2022-09-09T05:22:56;96489.53;;;14.06;99.23
47330;BME280;33060;50.178;7.570;2022-09-09T05:25:26;96490.09;;;14.09;98.58
47330;BME280;33060;50.178;7.570;2022-09-09T05:27:54;96492.91;;;14.08;98.62
47330;BME280;33060;50.178;7.570;2022-09-09T05:30:21;96495.78;;;14.14;98.52
47330;BME280;33060;50.178;7.570;2022-09-09T05:32:51;96491.75;;;14.20;98.07
47330;BME280;33060;50.178;7.570;2022-09-09T05:35:18;96486.56;;;14.28;97.77
47330;BME280;33060;50.178;7.570;2022-09-09T05:37:45;96487.53;;;14.27;97.66
47330;BME280;33060;50.178;7.570;2022-09-09T05:40:13;96489.63;;;14.33;97.13
47330;BME280;33060;50.178;7.570;2022-09-09T05:42:40;96491.00;;;14.37;96.78
47330;BME280;33060;50.178;7.570;2022-09-09T05:45:08;96493.34;;;14.40;96.51
47330;BME280;33060;50.178;7.570;2022-09-09T05:47:37;96503.44;;;14.47;96.16
47330;BME280;33060;50.178;7.570;2022-09-09T05:50:06;96502.28;;;14.49;95.86
47330;BME280;33060;50.178;7.570;2022-09-09T05:52:33;96499.22;;;14.54;95.93
47330;BME280;33060;50.178;7.570;2022-09-09T05:55:00;96500.69;;;14.66;94.70
47330;BME280;33060;50.178;7.570;2022-09-09T05:57:27;96491.84;;;14.75;93.83
47330;BME280;33060;50.178;7.570;2022-09-09T05:59:54;96493.28;;;14.97;92.96
47330;BME280;33060;50.178;7.570;2022-09-09T06:02:21;96500.53;;;15.05;92.32
47330;BME280;33060;50.178;7.570;2022-09-09T06:04:48;96499.63;;;15.14;91.45
47330;BME280;33060;50.178;7.570;2022-09-09T06:07:15;96495.59;;;15.27;90.71
47330;BME280;33060;50.178;7.570;2022-09-09T06:09:42;96504.88;;;15.41;89.13
47330;BME280;33060;50.178;7.570;2022-09-09T06:12:08;96499.72;;;15.40;90.11
47330;BME280;33060;50.178;7.570;2022-09-09T06:14:35;96501.38;;;15.23;90.14
47330;BME280;33060;50.178;7.570;2022-09-09T06:17:03;96502.47;;;15.30;89.56
47330;BME280;33060;50.178;7.570;2022-09-09T06:19:30;96501.25;;;15.42;89.49
47330;BME280;33060;50.178;7.570;2022-09-09T06:21:58;96498.59;;;15.42;88.92
47330;BME280;33060;50.178;7.570;2022-09-09T06:24:27;96504.38;;;15.38;89.40
47330;BME280;33060;50.178;7.570;2022-09-09T06:26:55;96503.56;;;15.27;89.76
47330;BME280;33060;50.178;7.570;2022-09-09T06:29:26;96489.84;;;15.50;88.95
47330;BME280;33060;50.178;7.570;2022-09-09T06:31:52;96496.69;;;15.88;87.02
47330;BME280;33060;50.178;7.570;2022-09-09T06:34:21;96494.47;;;16.01;86.34
47330;BME280;33060;50.178;7.570;2022-09-09T06:36:58;96499.38;;;16.14;85.94
47330;BME280;33060;50.178;7.570;2022-09-09T06:39:29;96500.88;;;16.34;84.06
47330;BME280;33060;50.178;7.570;2022-09-09T06:41:56;96491.88;;;16.35;82.69
47330;BME280;33060;50.178;7.570;2022-09-09T06:44:43;96495.59;;;16.43;82.19
47330;BME280;33060;50.178;7.570;2022-09-09T06:47:15;96491.31;;;16.24;81.72
47330;BME280;33060;50.178;7.570;2022-09-09T06:49:42;96506.38;;;16.15;82.38
47330;BME280;33060;50.178;7.570;2022-09-09T06:52:14;96506.88;;;15.93;81.84
47330;BME280;33060;50.178;7.570;2022-09-09T06:54:40;96504.31;;;15.83;81.46
47330;BME280;33060;50.178;7.570;2022-09-09T06:57:07;96508.66;;;15.84;81.40
47330;BME280;33060;50.178;7.570;2022-09-09T06:59:55;96510.00;;;15.88;80.82
47330;BME280;33060;50.178;7.570;2022-09-09T07:02:22;96507.47;;;16.04;80.06
47330;BME280;33060;50.178;7.570;2022-09-09T07:04:49;96508.06;;;16.16;79.04
47330;BME280;33060;50.178;7.570;2022-09-09T07:07:17;96512.97;;;16.29;78.18
47330;BME280;33060;50.178;7.570;2022-09-09T07:09:44;96508.03;;;16.34;77.20
47330;BME280;33060;50.178;7.570;2022-09-09T07:12:12;96519.31;;;16.10;77.18
47330;BME280;33060;50.178;7.570;2022-09-09T07:14:45;96517.06;;;16.23;77.57
47330;BME280;33060;50.178;7.570;2022-09-09T07:17:12;96514.00;;;16.10;77.66
47330;BME280;33060;50.178;7.570;2022-09-09T07:19:39;96512.47;;;16.25;77.08
47330;BME280;33060;50.178;7.570;2022-09-09T07:22:05;96509.47;;;16.54;76.05
47330;BME280;33060;50.178;7.570;2022-09-09T07:24:34;96507.47;;;16.82;75.09
47330;BME280;33060;50.178;7.570;2022-09-09T07:27:01;96519.41;;;17.04;73.78
47330;BME280;33060;50.178;7.570;2022-09-09T07:29:29;96510.63;;;17.28;72.25
47330;BME280;33060;50.178;7.570;2022-09-09T07:31:56;96516.06;;;17.10;73.38
47330;BME280;33060;50.178;7.570;2022-09-09T07:34:30;96513.81;;;17.23;73.45
47330;BME280;33060;50.178;7.570;2022-09-09T07:36:57;96519.47;;;16.78;74.88
47330;BME280;33060;50.178;7.570;2022-09-09T07:39:24;96518.97;;;16.57;75.99
47330;BME280;33060;50.178;7.570;2022-09-09T07:41:53;96527.44;;;16.26;76.82
47330;BME280;33060;50.178;7.570;2022-09-09T07:44:24;96527.53;;;16.17;76.33
47330;BME280;33060;50.178;7.570;2022-09-09T07:47:03;96534.91;;;16.05;76.34
47330;BME280;33060;50.178;7.570;2022-09-09T07:49:35;96535.06;;;16.03;76.29
47330;BME280;33060;50.178;7.570;2022-09-09T07:52:03;96539.09;;;15.90;74.81
47330;BME280;33060;50.178;7.570;2022-09-09T07:54:31;96541.47;;;15.93;75.44
47330;BME280;33060;50.178;7.570;2022-09-09T07:57:01;96538.25;;;15.89;75.34
47330;BME280;33060;50.178;7.570;2022-09-09T07:59:32;96541.25;;;16.30;76.96
47330;BME280;33060;50.178;7.570;2022-09-09T08:01:58;96543.41;;;16.52;77.29
47330;BME280;33060;50.178;7.570;2022-09-09T08:04:28;96540.22;;;16.75;75.24
47330;BME280;33060;50.178;7.570;2022-09-09T08:06:57;96537.22;;;17.04;74.39
